createdAt,value
2023-02-28T00:01:31.808Z,101799.31
2023-02-28T00:03:59.882Z,101804.72
2023-02-28T00:06:27.407Z,101803.84
2023-02-28T00:08:55.099Z,101809.06
2023-02-28T00:11:22.838Z,101807.47
2023-02-28T00:13:50.522Z,101804.94
2023-02-28T00:16:21.628Z,101814.47
2023-02-28T00:18:49.754Z,101812.66
2023-02-28T00:21:18.454Z,101807.56
2023-02-28T00:23:46.556Z,101809.47
2023-02-28T00:26:14.188Z,101814.75
2023-02-28T00:28:45.702Z,101814.88
2023-02-28T00:31:13.092Z,101813.13
2023-02-28T00:33:40.719Z,101821.94
2023-02-28T00:36:11.336Z,101816.72
2023-02-28T00:38:40.355Z,101827.19
2023-02-28T00:41:09.096Z,101821.03
2023-02-28T00:43:38.587Z,101830.72
2023-02-28T00:46:06.560Z,101817.56
2023-02-28T00:48:34.522Z,101820.13
2023-02-28T00:51:02.184Z,101828.88
2023-02-28T00:53:30.366Z,101819.31
2023-02-28T00:55:59.602Z,101819.28
2023-02-28T00:58:27.868Z,101831.50
2023-02-28T01:00:56.005Z,101827.81
2023-02-28T01:03:24.922Z,101821.72
2023-02-28T01:05:54.130Z,101831.19
2023-02-28T01:08:21.837Z,101825.06
2023-02-28T01:10:49.565Z,101824.09
2023-02-28T01:13:17.354Z,101822.72
2023-02-28T01:15:52.818Z,101809.31
2023-02-28T01:18:21.918Z,101807.09
2023-02-28T01:20:49.865Z,101827.03
2023-02-28T01:23:17.781Z,101828.69
2023-02-28T01:25:45.084Z,101827.88
2023-02-28T01:28:12.826Z,101817.53
2023-02-28T01:30:40.139Z,101819.44
2023-02-28T01:33:07.723Z,101816.03
2023-02-28T01:35:36.561Z,101809.81
2023-02-28T01:38:20.397Z,101805.31
2023-02-28T01:40:48.788Z,101815.03
2023-02-28T01:43:31.916Z,101804.38
2023-02-28T01:46:00.332Z,101807.84
2023-02-28T01:48:36.209Z,101812.25
2023-02-28T01:51:09.872Z,101810.25
2023-02-28T01:53:54.069Z,101792.63
2023-02-28T01:56:27.588Z,101805.22
2023-02-28T01:58:56.171Z,101808.19
2023-02-28T02:01:27.162Z,101807.13
2023-02-28T02:03:58.505Z,101806.81
2023-02-28T02:06:31.127Z,101798.31
2023-02-28T02:08:58.708Z,101801.91
2023-02-28T02:11:27.350Z,101802.03
2023-02-28T02:14:13.695Z,101810.84
2023-02-28T02:17:16.191Z,101808.28
2023-02-28T02:20:04.259Z,101815.38
2023-02-28T02:23:02.675Z,101808.22
2023-02-28T02:25:42.978Z,101817.00
2023-02-28T02:28:46.105Z,101812.38
2023-02-28T02:31:31.639Z,101805.50
2023-02-28T02:34:34.601Z,101818.81
2023-02-28T02:37:32.303Z,101824.28
2023-02-28T02:40:09.528Z,101815.63
2023-02-28T02:42:49.078Z,101815.75
2023-02-28T02:45:25.104Z,101815.47
2023-02-28T02:47:58.472Z,101810.84
2023-02-28T02:50:31.689Z,101812.88
2023-02-28T02:53:02.490Z,101796.97
2023-02-28T02:55:35.529Z,101829.31
2023-02-28T02:58:07.748Z,101810.84
2023-02-28T03:00:43.825Z,101822.88
2023-02-28T03:03:13.431Z,101827.47
2023-02-28T03:05:47.999Z,101817.56
2023-02-28T03:08:15.750Z,101817.78
2023-02-28T03:10:47.176Z,101817.75
2023-02-28T03:13:26.990Z,101830.94
2023-02-28T03:16:14.142Z,101828.31
2023-02-28T03:19:06.710Z,101826.72
2023-02-28T03:21:44.620Z,101816.22
2023-02-28T03:24:50.658Z,101825.09
2023-02-28T03:27:28.030Z,101825.38
2023-02-28T03:30:07.403Z,101826.22
2023-02-28T03:32:42.025Z,101829.75
2023-02-28T03:35:15.457Z,101838.47
2023-02-28T03:37:46.109Z,101835.84
2023-02-28T03:40:22.695Z,101835.03
2023-02-28T03:42:55.454Z,101832.47
2023-02-28T03:45:27.816Z,101826.28
2023-02-28T03:47:58.067Z,101838.56
2023-02-28T03:50:28.347Z,101830.84
2023-02-28T03:53:18.591Z,101826.44
2023-02-28T03:55:55.226Z,101826.44
2023-02-28T03:58:26.321Z,101828.25
2023-02-28T04:01:09.064Z,101823.97
2023-02-28T04:03:38.328Z,101818.81
2023-02-28T04:06:09.460Z,101829.28
2023-02-28T04:08:36.788Z,101817.66
2023-02-28T04:11:38.558Z,101837.13
2023-02-28T04:14:07.476Z,101826.72
2023-02-28T04:16:39.438Z,101831.16
2023-02-28T04:19:08.700Z,101821.66
2023-02-28T04:21:45.342Z,101836.47
2023-02-28T04:24:15.807Z,101831.16
2023-02-28T04:26:46.871Z,101823.47
2023-02-28T04:29:21.329Z,101817.41
2023-02-28T04:31:49.032Z,101827.91
2023-02-28T04:34:17.526Z,101816.72
2023-02-28T04:36:46.937Z,101821.13
2023-02-28T04:39:14.557Z,101819.88
2023-02-28T04:41:42.207Z,101821.53
2023-02-28T04:44:09.426Z,101823.44
2023-02-28T04:46:37.329Z,101807.81
2023-02-28T04:49:04.624Z,101814.69
2023-02-28T04:51:32.234Z,101819.31
2023-02-28T04:53:59.868Z,101817.66
2023-02-28T04:56:27.380Z,101815.09
2023-02-28T04:58:55.719Z,101808.88
2023-02-28T05:01:23.218Z,101823.63
2023-02-28T05:03:51.657Z,101816.75
2023-02-28T05:06:21.346Z,101809.78
2023-02-28T05:08:48.844Z,101820.25
2023-02-28T05:11:35.909Z,101824.72
2023-02-28T05:14:11.406Z,101826.50
2023-02-28T05:16:39.116Z,101818.78
2023-02-28T05:19:06.461Z,101821.31
2023-02-28T05:21:38.740Z,101820.47
2023-02-28T05:24:07.505Z,101829.13
2023-02-28T05:26:39.685Z,101830.06
2023-02-28T05:29:06.851Z,101824.91
2023-02-28T05:31:34.949Z,101811.84
2023-02-28T05:34:02.613Z,101806.28
2023-02-28T05:36:30.276Z,101800.13
2023-02-28T05:38:57.598Z,101796.44
2023-02-28T05:41:25.215Z,101813.78
2023-02-28T05:43:52.511Z,101804.31
2023-02-28T05:46:20.150Z,101810.50
2023-02-28T05:48:49.255Z,101809.50
2023-02-28T05:51:17.809Z,101810.13
2023-02-28T05:53:45.334Z,101808.66
2023-02-28T05:56:13.040Z,101794.47
2023-02-28T05:58:40.275Z,101798.13
2023-02-28T06:01:41.721Z,101809.22
2023-02-28T06:04:22.202Z,101810.16
2023-02-28T06:06:58.606Z,101803.94
2023-02-28T06:09:26.114Z,101797.63
2023-02-28T06:11:53.690Z,101812.63
2023-02-28T06:14:21.836Z,101817.03
2023-02-28T06:16:49.444Z,101814.44
2023-02-28T06:19:17.075Z,101813.50
2023-02-28T06:21:44.806Z,101833.88
2023-02-28T06:24:12.159Z,101822.28
2023-02-28T06:26:39.778Z,101812.28
2023-02-28T06:29:07.054Z,101810.59
2023-02-28T06:31:34.746Z,101812.84
2023-02-28T06:34:02.220Z,101827.50
2023-02-28T06:36:29.987Z,101833.72
2023-02-28T06:38:57.519Z,101826.94
2023-02-28T06:41:27.268Z,101829.28
2023-02-28T06:43:54.931Z,101828.88
2023-02-28T06:46:23.240Z,101826.28
2023-02-28T06:48:50.844Z,101824.25
2023-02-28T06:51:23.215Z,101837.63
2023-02-28T06:53:51.099Z,101822.06
2023-02-28T06:56:21.308Z,101828.94
2023-02-28T06:58:49.989Z,101827.38
2023-02-28T07:01:18.378Z,101833.13
2023-02-28T07:03:46.482Z,101825.34
2023-02-28T07:06:13.983Z,101829.38
2023-02-28T07:08:42.161Z,101832.53
2023-02-28T07:11:09.942Z,101827.63
2023-02-28T07:13:37.528Z,101832.34
2023-02-28T07:16:08.838Z,101832.91
2023-02-28T07:18:36.789Z,101836.06
2023-02-28T07:21:06.499Z,101834.72
2023-02-28T07:23:33.989Z,101831.63
2023-02-28T07:26:01.557Z,101836.59
2023-02-28T07:28:29.192Z,101835.06
2023-02-28T07:30:57.021Z,101828.66
2023-02-28T07:33:25.145Z,101837.22
2023-02-28T07:35:52.751Z,101834.63
2023-02-28T07:38:20.061Z,101821.84
2023-02-28T07:40:47.632Z,101822.88
2023-02-28T07:43:14.867Z,101828.16
2023-02-28T07:45:42.637Z,101837.22
2023-02-28T07:48:11.181Z,101839.06
2023-02-28T07:50:39.015Z,101840.31
2023-02-28T07:53:06.354Z,101840.91
2023-02-28T07:55:33.989Z,101839.88
2023-02-28T07:58:01.432Z,101841.78
2023-02-28T08:00:30.173Z,101840.81
2023-02-28T08:02:57.445Z,101861.25
2023-02-28T08:05:25.066Z,101835.06
2023-02-28T08:07:52.388Z,101840.25
2023-02-28T08:10:20.059Z,101832.19
2023-02-28T08:12:47.277Z,101847.66
2023-02-28T08:15:14.862Z,101828.72
2023-02-28T08:17:42.086Z,101834.31
2023-02-28T08:20:11.433Z,101827.25
2023-02-28T08:22:38.660Z,101831.50
2023-02-28T08:25:08.203Z,101816.63
2023-02-28T08:27:36.445Z,101824.88
2023-02-28T08:30:04.811Z,101814.59
2023-02-28T08:32:34.309Z,101819.03
2023-02-28T08:35:02.910Z,101824.34
2023-02-28T08:37:30.263Z,101816.06
2023-02-28T08:39:57.948Z,101804.22
2023-02-28T08:42:25.543Z,101801.25
2023-02-28T08:44:53.108Z,101799.84
2023-02-28T08:47:20.416Z,101807.44
2023-02-28T08:49:47.955Z,101801.69
2023-02-28T08:52:15.272Z,101807.88
2023-02-28T08:54:42.812Z,101819.75
2023-02-28T08:57:10.049Z,101814.59
2023-02-28T08:59:37.575Z,101811.41
2023-02-28T09:02:04.922Z,101820.47
2023-02-28T09:04:32.401Z,101817.16
2023-02-28T09:06:59.735Z,101826.25
2023-02-28T09:09:27.308Z,101822.41
2023-02-28T09:11:57.487Z,101827.06
2023-02-28T09:14:25.097Z,101832.03
2023-02-28T09:16:52.445Z,101832.56
2023-02-28T09:19:20.058Z,101821.28
2023-02-28T09:21:47.477Z,101830.50
2023-02-28T09:24:16.256Z,101832.53
2023-02-28T09:26:56.388Z,101833.38
2023-02-28T09:29:32.636Z,101828.19
2023-02-28T09:32:00.473Z,101821.63
2023-02-28T09:34:31.947Z,101828.03
2023-02-28T09:36:59.342Z,101833.66
2023-02-28T09:39:27.972Z,101838.66
2023-02-28T09:41:56.947Z,101825.66
2023-02-28T09:44:39.827Z,101831.91
2023-02-28T09:47:26.465Z,101839.38
2023-02-28T09:49:57.565Z,101841.00
2023-02-28T09:52:31.431Z,101837.38
2023-02-28T09:55:21.090Z,101830.56
2023-02-28T09:57:48.528Z,101823.75
2023-02-28T10:00:22.247Z,101816.50
2023-02-28T10:02:52.066Z,101827.22
2023-02-28T10:05:24.053Z,101835.03
2023-02-28T10:08:26.078Z,101809.31
2023-02-28T10:10:59.616Z,101816.28
2023-02-28T10:13:37.527Z,101813.91
2023-02-28T10:16:05.448Z,101821.66
2023-02-28T10:18:47.151Z,101809.91
2023-02-28T10:21:19.370Z,101817.91
2023-02-28T10:23:48.969Z,101796.47
2023-02-28T10:26:18.400Z,101799.59
2023-02-28T10:28:46.462Z,101805.22
2023-02-28T10:31:19.195Z,101795.78
2023-02-28T10:33:47.178Z,101800.69
2023-02-28T10:36:20.706Z,101813.38
2023-02-28T10:38:51.470Z,101809.97
2023-02-28T10:41:31.180Z,101800.81
2023-02-28T10:44:18.995Z,101803.56
2023-02-28T10:46:46.911Z,101806.81
2023-02-28T10:49:30.415Z,101809.28
2023-02-28T10:52:00.772Z,101813.06
2023-02-28T10:54:32.553Z,101806.22
2023-02-28T10:57:10.309Z,101803.34
2023-02-28T10:59:37.650Z,101802.94
2023-02-28T11:02:39.368Z,101803.03
2023-02-28T11:05:27.523Z,101798.47
2023-02-28T11:07:58.137Z,101788.06
2023-02-28T11:10:30.028Z,101786.72
2023-02-28T11:13:00.546Z,101772.09
2023-02-28T11:15:32.018Z,101785.41
2023-02-28T11:18:28.076Z,101781.22
2023-02-28T11:20:59.316Z,101791.38
2023-02-28T11:23:29.458Z,101780.91
2023-02-28T11:26:01.381Z,101776.13
2023-02-28T11:28:28.944Z,101771.72
2023-02-28T11:31:20.617Z,101762.69
2023-02-28T11:33:56.854Z,101759.41
2023-02-28T11:36:28.081Z,101766.00
2023-02-28T11:39:02.680Z,101766.81
2023-02-28T11:41:34.567Z,101759.50
2023-02-28T11:44:28.586Z,101746.78
2023-02-28T11:47:01.978Z,101742.78
2023-02-28T11:49:44.772Z,101724.66
2023-02-28T11:52:14.793Z,101739.53
2023-02-28T11:55:08.938Z,101734.78
2023-02-28T11:57:52.533Z,101724.84
2023-02-28T12:00:38.258Z,101720.63
2023-02-28T12:03:26.821Z,101716.97
2023-02-28T12:05:57.499Z,101712.22
2023-02-28T12:08:46.737Z,101720.06
2023-02-28T12:11:54.884Z,101702.94
2023-02-28T12:14:47.186Z,101720.53
2023-02-28T12:17:53.741Z,101712.69
2023-02-28T12:20:32.956Z,101710.47
2023-02-28T12:23:32.897Z,101711.09
2023-02-28T12:26:21.263Z,101713.84
2023-02-28T12:29:02.919Z,101695.03
2023-02-28T12:31:39.417Z,101700.91
2023-02-28T12:34:13.136Z,101715.09
2023-02-28T12:36:45.380Z,101714.81
2023-02-28T12:39:49.531Z,101700.44
2023-02-28T12:42:29.535Z,101704.81
2023-02-28T12:45:11.339Z,101689.81
2023-02-28T12:47:42.491Z,101701.06
2023-02-28T12:50:12.776Z,101687.78
2023-02-28T12:53:00.692Z,101677.81
2023-02-28T12:55:53.738Z,101699.72
2023-02-28T12:58:42.624Z,101693.22
2023-02-28T13:01:19.252Z,101692.91
2023-02-28T13:03:55.304Z,101689.06
2023-02-28T13:06:49.199Z,101703.03
2023-02-28T13:09:17.821Z,101694.78
2023-02-28T13:12:15.210Z,101690.31
2023-02-28T13:14:42.679Z,101680.03
2023-02-28T13:17:10.111Z,101697.47
2023-02-28T13:19:41.846Z,101684.41
2023-02-28T13:22:38.911Z,101682.59
2023-02-28T13:25:24.411Z,101677.69
2023-02-28T13:28:04.871Z,101686.44
2023-02-28T13:30:54.285Z,101677.03
2023-02-28T13:33:29.104Z,101685.28
2023-02-28T13:36:32.920Z,101668.03
2023-02-28T13:39:21.438Z,101664.88
2023-02-28T13:41:49.041Z,101657.91
2023-02-28T13:44:27.786Z,101656.09
2023-02-28T13:46:56.808Z,101657.97
2023-02-28T13:49:24.293Z,101662.47
2023-02-28T13:52:16.136Z,101650.06
2023-02-28T13:55:19.321Z,101660.94
2023-02-28T13:58:40.381Z,101638.44
2023-02-28T14:01:08.009Z,101654.13
2023-02-28T14:03:44.369Z,101639.84
2023-02-28T14:06:37.770Z,101638.44
2023-02-28T14:09:24.788Z,101625.25
2023-02-28T14:11:53.073Z,101627.78
2023-02-28T14:14:46.651Z,101632.47
2023-02-28T14:17:17.150Z,101615.56
2023-02-28T14:19:51.011Z,101615.38
2023-02-28T14:22:33.715Z,101627.69
2023-02-28T14:25:16.186Z,101626.34
2023-02-28T14:27:49.165Z,101621.25
2023-02-28T14:30:38.359Z,101621.81
2023-02-28T14:33:27.683Z,101613.66
2023-02-28T14:36:07.174Z,101626.66
2023-02-28T14:38:44.299Z,101626.03
2023-02-28T14:41:39.918Z,101625.00
2023-02-28T14:44:28.395Z,101621.09
2023-02-28T14:47:07.778Z,101634.59
2023-02-28T14:49:47.703Z,101624.75
2023-02-28T14:52:44.672Z,101626.69
2023-02-28T14:55:18.017Z,101615.53
2023-02-28T14:57:57.213Z,101624.94
2023-02-28T15:00:24.808Z,101625.09
2023-02-28T15:02:53.830Z,101622.41
2023-02-28T15:05:39.496Z,101606.84
2023-02-28T15:08:14.905Z,101610.63
2023-02-28T15:10:51.812Z,101598.88
2023-02-28T15:13:20.362Z,101604.00
2023-02-28T15:16:03.766Z,101594.44
2023-02-28T15:18:34.521Z,101589.94
2023-02-28T15:21:09.491Z,101590.44
2023-02-28T15:23:38.933Z,101593.94
2023-02-28T15:26:07.250Z,101593.25
2023-02-28T15:28:34.653Z,101596.22
2023-02-28T15:31:04.766Z,101600.22
2023-02-28T15:33:34.473Z,101587.59
2023-02-28T15:36:08.464Z,101589.31
2023-02-28T15:38:37.198Z,101602.13
2023-02-28T15:41:09.165Z,101599.56
2023-02-28T15:43:39.235Z,101589.94
2023-02-28T15:46:12.363Z,101598.25
2023-02-28T15:48:56.848Z,101595.25
2023-02-28T15:51:39.366Z,101585.91
2023-02-28T15:54:09.629Z,101583.13
2023-02-28T15:56:44.774Z,101592.06
2023-02-28T15:59:22.416Z,101581.94
2023-02-28T16:02:13.058Z,101592.88
2023-02-28T16:05:16.708Z,101577.63
2023-02-28T16:07:45.208Z,101578.50
2023-02-28T16:10:17.256Z,101574.22
2023-02-28T16:12:45.516Z,101562.22
2023-02-28T16:15:21.161Z,101578.13
2023-02-28T16:17:49.440Z,101567.59
2023-02-28T16:20:28.920Z,101570.19
2023-02-28T16:22:57.456Z,101568.19
2023-02-28T16:25:34.299Z,101565.69
2023-02-28T16:28:02.398Z,101572.22
2023-02-28T16:30:33.605Z,101569.63
2023-02-28T16:33:01.373Z,101572.47
2023-02-28T16:35:28.644Z,101569.78
2023-02-28T16:37:56.629Z,101563.69
2023-02-28T16:40:26.745Z,101574.47
2023-02-28T16:42:59.858Z,101580.50
2023-02-28T16:45:29.607Z,101577.06
2023-02-28T16:47:57.672Z,101573.38
2023-02-28T16:50:27.991Z,101574.78
2023-02-28T16:52:56.202Z,101570.50
2023-02-28T16:55:24.935Z,101553.13
2023-02-28T16:57:56.327Z,101568.91
2023-02-28T17:00:24.720Z,101576.28
2023-02-28T17:02:52.857Z,101570.31
2023-02-28T17:05:20.955Z,101562.75
2023-02-28T17:07:49.220Z,101569.75
2023-02-28T17:10:24.917Z,101558.75
2023-02-28T17:12:55.020Z,101555.56
2023-02-28T17:15:23.852Z,101551.91
2023-02-28T17:17:51.658Z,101553.44
2023-02-28T17:20:24.915Z,101551.25
2023-02-28T17:22:53.780Z,101548.84
2023-02-28T17:25:22.115Z,101553.09
2023-02-28T17:27:52.341Z,101554.69
2023-02-28T17:30:24.284Z,101568.03
2023-02-28T17:32:52.026Z,101551.97
2023-02-28T17:35:19.380Z,101554.63
2023-02-28T17:37:46.972Z,101563.59
2023-02-28T17:40:19.988Z,101567.66
2023-02-28T17:42:47.723Z,101554.69
2023-02-28T17:45:16.065Z,101569.91
2023-02-28T17:47:46.759Z,101554.19
2023-02-28T17:50:21.968Z,101564.88
2023-02-28T17:52:51.430Z,101558.34
2023-02-28T17:55:20.238Z,101556.09
2023-02-28T17:57:47.834Z,101554.38
2023-02-28T18:00:18.403Z,101567.72
2023-02-28T18:02:46.281Z,101563.56
2023-02-28T18:05:13.628Z,101563.69
2023-02-28T18:07:41.779Z,101559.81
2023-02-28T18:10:20.574Z,101558.06
2023-02-28T18:12:50.815Z,101564.19
2023-02-28T18:15:21.183Z,101567.25
2023-02-28T18:17:49.768Z,101571.38
2023-02-28T18:20:17.738Z,101570.31
2023-02-28T18:22:45.406Z,101562.69
2023-02-28T18:25:16.967Z,101582.06
2023-02-28T18:27:54.478Z,101586.38
2023-02-28T18:30:22.619Z,101573.88
2023-02-28T18:32:50.220Z,101564.72
2023-02-28T18:35:36.129Z,101566.47
2023-02-28T18:38:15.155Z,101562.34
2023-02-28T18:40:43.689Z,101561.06
2023-02-28T18:43:11.258Z,101561.41
2023-02-28T18:45:39.562Z,101559.22
2023-02-28T18:48:07.253Z,101564.69
2023-02-28T18:50:37.145Z,101570.97
2023-02-28T18:53:04.902Z,101558.03
2023-02-28T18:55:32.909Z,101564.06
2023-02-28T18:58:00.684Z,101557.59
2023-02-28T19:00:28.028Z,101560.44
2023-02-28T19:02:55.662Z,101559.03
2023-02-28T19:05:23.937Z,101569.22
2023-02-28T19:07:51.487Z,101555.06
2023-02-28T19:10:19.036Z,101550.81
2023-02-28T19:12:47.176Z,101554.78
2023-02-28T19:15:14.548Z,101536.72
2023-02-28T19:17:42.302Z,101535.19
2023-02-28T19:20:10.569Z,101535.44
2023-02-28T19:22:38.910Z,101539.00
2023-02-28T19:25:07.542Z,101549.81
2023-02-28T19:27:35.335Z,101547.72
2023-02-28T19:30:04.375Z,101527.22
2023-02-28T19:32:32.234Z,101540.56
2023-02-28T19:34:59.614Z,101543.78
2023-02-28T19:37:27.236Z,101543.03
2023-02-28T19:39:57.027Z,101558.34
2023-02-28T19:42:24.950Z,101555.31
2023-02-28T19:44:52.304Z,101554.41
2023-02-28T19:47:19.831Z,101547.19
2023-02-28T19:49:47.095Z,101560.13
2023-02-28T19:52:15.603Z,101547.44
2023-02-28T19:54:43.032Z,101551.22
2023-02-28T19:57:10.993Z,101554.03
2023-02-28T19:59:39.952Z,101544.09
2023-02-28T20:02:15.848Z,101542.81
2023-02-28T20:04:43.324Z,101546.34
2023-02-28T20:07:11.334Z,101547.16
2023-02-28T20:09:38.621Z,101538.72
2023-02-28T20:12:09.227Z,101545.63
2023-02-28T20:14:42.398Z,101541.44
2023-02-28T20:17:10.196Z,101541.38
2023-02-28T20:19:38.096Z,101543.97
2023-02-28T20:22:06.127Z,101539.84
2023-02-28T20:24:33.546Z,101532.50
2023-02-28T20:27:01.120Z,101540.44
2023-02-28T20:29:28.422Z,101534.97
2023-02-28T20:31:57.675Z,101534.22
2023-02-28T20:34:25.357Z,101536.91
2023-02-28T20:36:53.225Z,101535.41
2023-02-28T20:39:20.454Z,101529.78
2023-02-28T20:41:48.065Z,101522.28
2023-02-28T20:44:15.425Z,101522.03
2023-02-28T20:46:43.878Z,101508.56
2023-02-28T20:49:11.497Z,101519.78
2023-02-28T20:51:40.250Z,101516.19
2023-02-28T20:54:11.256Z,101520.78
2023-02-28T20:56:38.945Z,101509.91
2023-02-28T20:59:06.380Z,101523.13
2023-02-28T21:01:34.275Z,101528.81
2023-02-28T21:04:06.166Z,101524.78
2023-02-28T21:06:37.213Z,101521.22
2023-02-28T21:09:09.487Z,101518.66
2023-02-28T21:11:39.286Z,101536.09
2023-02-28T21:14:12.783Z,101526.53
2023-02-28T21:16:40.980Z,101503.38
2023-02-28T21:19:09.123Z,101497.03
2023-02-28T21:21:43.982Z,101520.59
2023-02-28T21:24:12.426Z,101519.50
2023-02-28T21:26:42.065Z,101503.94
2023-02-28T21:29:09.349Z,101515.34
2023-02-28T21:31:37.516Z,101516.84
2023-02-28T21:34:08.288Z,101506.16
2023-02-28T21:36:41.508Z,101508.56
2023-02-28T21:39:13.200Z,101501.13
2023-02-28T21:41:41.710Z,101502.88
2023-02-28T21:44:18.210Z,101498.31
2023-02-28T21:46:52.567Z,101499.03
2023-02-28T21:49:20.014Z,101483.75
2023-02-28T21:51:47.594Z,101495.19
2023-02-28T21:54:14.864Z,101480.78
2023-02-28T21:56:42.699Z,101481.94
2023-02-28T21:59:10.557Z,101479.88
2023-02-28T22:01:40.586Z,101484.31
2023-02-28T22:04:10.390Z,101483.38
2023-02-28T22:06:41.261Z,101481.66
2023-02-28T22:09:10.457Z,101490.00
2023-02-28T22:11:38.783Z,101475.69
2023-02-28T22:14:09.318Z,101464.19
2023-02-28T22:16:50.737Z,101467.97
2023-02-28T22:19:21.153Z,101476.97
2023-02-28T22:21:48.741Z,101467.22
2023-02-28T22:24:18.112Z,101464.25
2023-02-28T22:26:45.548Z,101479.16
2023-02-28T22:29:13.086Z,101463.84
2023-02-28T22:31:40.440Z,101467.00
2023-02-28T22:34:10.944Z,101462.69
2023-02-28T22:36:40.041Z,101453.38
2023-02-28T22:39:07.781Z,101465.06
2023-02-28T22:41:35.121Z,101472.03
2023-02-28T22:44:04.293Z,101460.75
2023-02-28T22:46:34.064Z,101470.94
2023-02-28T22:49:06.867Z,101477.00
2023-02-28T22:51:35.024Z,101457.28
2023-02-28T22:54:02.550Z,101471.34
2023-02-28T22:56:30.923Z,101470.63
2023-02-28T22:59:00.757Z,101476.53
2023-02-28T23:01:31.339Z,101468.66
2023-02-28T23:03:59.958Z,101458.41
2023-02-28T23:06:33.089Z,101459.88
2023-02-28T23:09:04.659Z,101461.72
2023-02-28T23:11:39.932Z,101443.47
2023-02-28T23:14:08.048Z,101449.75
2023-02-28T23:16:50.588Z,101446.63
2023-02-28T23:19:22.032Z,101450.78
2023-02-28T23:21:49.490Z,101445.63
2023-02-28T23:24:19.839Z,101450.19
2023-02-28T23:26:49.248Z,101468.94
2023-02-28T23:29:18.394Z,101462.53
2023-02-28T23:31:45.826Z,101473.19
2023-02-28T23:34:14.951Z,101471.78
2023-02-28T23:36:46.123Z,101473.28
2023-02-28T23:39:17.393Z,101475.63
2023-02-28T23:41:46.002Z,101473.94
2023-02-28T23:44:19.881Z,101469.25
2023-02-28T23:46:51.070Z,101469.16
2023-02-28T23:49:22.359Z,101473.34
2023-02-28T23:51:51.992Z,101468.84
2023-02-28T23:54:20.105Z,101479.19
2023-02-28T23:56:47.370Z,101474.38
2023-02-28T23:59:14.992Z,101478.25
